sensor_id;sensor_type;location;lat;lon;timestamp;pressure;altitude;pressure_sealevel;temperature;humidity
1652;BME280;823;49.028;8.454;2022-08-25T00:00:17;100419.44;;;26.44;39.59
1652;BME280;823;49.028;8.454;2022-08-25T00:05:18;100422.91;;;26.26;39.63
1652;BME280;823;49.028;8.454;2022-08-25T00:10:18;100424.13;;;26.14;40.03
1652;BME280;823;49.028;8.454;2022-08-25T00:15:20;100430.25;;;25.96;39.83
1652;BME280;823;49.028;8.454;2022-08-25T00:20:22;100423.81;;;25.81;40.15
1652;BME280;823;49.028;8.454;2022-08-25T00:25:22;100423.75;;;25.63;40.22
1652;BME280;823;49.028;8.454;2022-08-25T00:30:23;100418.94;;;25.48;40.44
1652;BME280;823;49.028;8.454;2022-08-25T00:35:25;100422.25;;;25.23;41.25
1652;BME280;823;49.028;8.454;2022-08-25T00:40:26;100427.66;;;25.21;41.53
1652;BME280;823;49.028;8.454;2022-08-25T00:45:27;100436.03;;;25.16;42.08
1652;BME280;823;49.028;8.454;2022-08-25T00:50:30;100438.53;;;25.18;41.99
1652;BME280;823;49.028;8.454;2022-08-25T00:55:36;100444.13;;;25.15;42.39
1652;BME280;823;49.028;8.454;2022-08-25T01:00:44;100440.00;;;25.03;42.81
1652;BME280;823;49.028;8.454;2022-08-25T01:05:45;100436.94;;;24.97;42.73
1652;BME280;823;49.028;8.454;2022-08-25T01:10:47;100429.16;;;24.86;42.54
1652;BME280;823;49.028;8.454;2022-08-25T01:15:52;100431.16;;;24.74;43.02
1652;BME280;823;49.028;8.454;2022-08-25T01:20:54;100432.53;;;24.69;43.64
1652;BME280;823;49.028;8.454;2022-08-25T01:26:12;100433.53;;;24.68;43.45
1652;BME280;823;49.028;8.454;2022-08-25T01:31:13;100438.66;;;24.59;43.90
1652;BME280;823;49.028;8.454;2022-08-25T01:36:17;100433.13;;;24.62;43.61
1652;BME280;823;49.028;8.454;2022-08-25T01:46:34;100436.84;;;24.50;44.05
1652;BME280;823;49.028;8.454;2022-08-25T01:51:51;100439.06;;;24.45;43.99
1652;BME280;823;49.028;8.454;2022-08-25T01:56:52;100445.88;;;24.38;44.16
1652;BME280;823;49.028;8.454;2022-08-25T02:01:53;100426.72;;;24.36;44.37
1652;BME280;823;49.028;8.454;2022-08-25T02:06:53;100437.00;;;24.39;44.61
1652;BME280;823;49.028;8.454;2022-08-25T02:11:54;100435.88;;;24.41;44.75
1652;BME280;823;49.028;8.454;2022-08-25T02:16:55;100438.66;;;24.40;44.96
1652;BME280;823;49.028;8.454;2022-08-25T02:21:57;100438.09;;;24.36;45.09
1652;BME280;823;49.028;8.454;2022-08-25T02:26:58;100432.13;;;24.34;45.18
1652;BME280;823;49.028;8.454;2022-08-25T02:31:59;100429.22;;;24.27;45.60
1652;BME280;823;49.028;8.454;2022-08-25T02:36:59;100432.38;;;24.21;45.55
1652;BME280;823;49.028;8.454;2022-08-25T02:41:59;100435.59;;;24.15;45.76
1652;BME280;823;49.028;8.454;2022-08-25T02:47:00;100425.03;;;24.15;45.55
1652;BME280;823;49.028;8.454;2022-08-25T02:52:00;100419.03;;;24.03;45.94
1652;BME280;823;49.028;8.454;2022-08-25T02:57:01;100417.09;;;23.95;46.27
1652;BME280;823;49.028;8.454;2022-08-25T03:02:02;100407.19;;;23.88;46.33
1652;BME280;823;49.028;8.454;2022-08-25T03:07:02;100415.75;;;23.80;46.44
1652;BME280;823;49.028;8.454;2022-08-25T03:12:04;100422.41;;;23.74;46.98
1652;BME280;823;49.028;8.454;2022-08-25T03:17:06;100423.13;;;23.76;46.58
1652;BME280;823;49.028;8.454;2022-08-25T03:22:07;100420.50;;;23.76;46.75
1652;BME280;823;49.028;8.454;2022-08-25T03:27:07;100409.34;;;23.73;46.71
1652;BME280;823;49.028;8.454;2022-08-25T03:32:08;100422.84;;;23.70;46.56
1652;BME280;823;49.028;8.454;2022-08-25T03:37:08;100410.88;;;23.66;46.83
1652;BME280;823;49.028;8.454;2022-08-25T03:42:08;100399.88;;;23.60;46.83
1652;BME280;823;49.028;8.454;2022-08-25T03:47:11;100386.25;;;23.55;47.71
1652;BME280;823;49.028;8.454;2022-08-25T03:52:12;100394.03;;;23.47;47.59
1652;BME280;823;49.028;8.454;2022-08-25T03:57:12;100404.44;;;23.49;47.27
1652;BME280;823;49.028;8.454;2022-08-25T04:02:14;100407.28;;;23.36;47.62
1652;BME280;823;49.028;8.454;2022-08-25T04:07:14;100397.00;;;23.33;47.81
1652;BME280;823;49.028;8.454;2022-08-25T04:12:15;100404.63;;;23.26;47.83
1652;BME280;823;49.028;8.454;2022-08-25T04:17:16;100414.91;;;23.19;48.04
1652;BME280;823;49.028;8.454;2022-08-25T04:22:16;100418.94;;;23.23;47.76
1652;BME280;823;49.028;8.454;2022-08-25T04:27:17;100415.41;;;23.13;48.01
1652;BME280;823;49.028;8.454;2022-08-25T04:32:18;100416.28;;;23.02;48.33
1652;BME280;823;49.028;8.454;2022-08-25T04:37:18;100421.13;;;22.97;48.84
1652;BME280;823;49.028;8.454;2022-08-25T04:42:19;100427.94;;;23.00;48.68
1652;BME280;823;49.028;8.454;2022-08-25T04:47:19;100427.00;;;23.10;48.37
1652;BME280;823;49.028;8.454;2022-08-25T04:52:20;100411.31;;;23.09;48.43
1652;BME280;823;49.028;8.454;2022-08-25T04:57:20;100414.03;;;22.98;48.58
1652;BME280;823;49.028;8.454;2022-08-25T05:02:21;100407.81;;;22.99;48.56
1652;BME280;823;49.028;8.454;2022-08-25T05:07:24;100417.31;;;22.90;48.72
1652;BME280;823;49.028;8.454;2022-08-25T05:12:24;100412.03;;;22.90;48.80
1652;BME280;823;49.028;8.454;2022-08-25T05:17:24;100411.22;;;22.89;49.29
1652;BME280;823;49.028;8.454;2022-08-25T05:22:25;100407.09;;;22.96;49.15
1652;BME280;823;49.028;8.454;2022-08-25T05:27:25;100418.09;;;23.02;49.30
1652;BME280;823;49.028;8.454;2022-08-25T05:32:25;100418.03;;;23.13;49.24
1652;BME280;823;49.028;8.454;2022-08-25T05:37:26;100407.84;;;23.29;48.96
1652;BME280;823;49.028;8.454;2022-08-25T05:42:26;100413.28;;;23.38;48.23
1652;BME280;823;49.028;8.454;2022-08-25T05:47:28;100411.81;;;23.55;48.74
1652;BME280;823;49.028;8.454;2022-08-25T05:52:28;100412.72;;;23.75;48.64
1652;BME280;823;49.028;8.454;2022-08-25T05:57:28;100393.56;;;23.92;48.60
1652;BME280;823;49.028;8.454;2022-08-25T06:02:28;100395.25;;;24.13;48.19
1652;BME280;823;49.028;8.454;2022-08-25T06:07:44;100398.03;;;24.31;47.89
1652;BME280;823;49.028;8.454;2022-08-25T06:12:45;100404.31;;;24.50;47.19
1652;BME280;823;49.028;8.454;2022-08-25T06:17:46;100394.97;;;24.65;47.18
1652;BME280;823;49.028;8.454;2022-08-25T06:22:48;100392.75;;;24.70;46.29
1652;BME280;823;49.028;8.454;2022-08-25T06:27:49;100396.47;;;24.87;46.00
1652;BME280;823;49.028;8.454;2022-08-25T06:32:50;100388.00;;;25.11;45.43
1652;BME280;823;49.028;8.454;2022-08-25T06:37:50;100391.72;;;25.28;45.11
1652;BME280;823;49.028;8.454;2022-08-25T06:42:51;100383.63;;;25.30;45.02
1652;BME280;823;49.028;8.454;2022-08-25T06:47:52;100369.56;;;25.57;45.00
1652;BME280;823;49.028;8.454;2022-08-25T06:52:53;100366.25;;;25.73;44.96
1652;BME280;823;49.028;8.454;2022-08-25T06:57:54;100370.13;;;25.79;44.23
1652;BME280;823;49.028;8.454;2022-08-25T07:02:54;100369.75;;;26.10;44.21
1652;BME280;823;49.028;8.454;2022-08-25T07:07:55;100369.81;;;26.36;43.59
1652;BME280;823;49.028;8.454;2022-08-25T07:12:55;100370.25;;;26.49;43.17
1652;BME280;823;49.028;8.454;2022-08-25T07:17:56;100366.72;;;26.67;42.52
1652;BME280;823;49.028;8.454;2022-08-25T07:22:56;100345.09;;;26.80;42.05
1652;BME280;823;49.028;8.454;2022-08-25T07:27:57;100349.63;;;26.88;42.16
1652;BME280;823;49.028;8.454;2022-08-25T07:32:58;100349.97;;;26.93;41.76
1652;BME280;823;49.028;8.454;2022-08-25T07:37:58;100353.28;;;27.29;42.24
1652;BME280;823;49.028;8.454;2022-08-25T07:43:02;100348.22;;;27.44;41.49
1652;BME280;823;49.028;8.454;2022-08-25T07:48:09;100357.25;;;27.76;41.01
1652;BME280;823;49.028;8.454;2022-08-25T07:53:11;100352.13;;;27.99;39.94
1652;BME280;823;49.028;8.454;2022-08-25T07:58:11;100358.13;;;28.18;40.00
1652;BME280;823;49.028;8.454;2022-08-25T08:03:11;100357.44;;;28.41;39.68
1652;BME280;823;49.028;8.454;2022-08-25T08:08:12;100357.25;;;28.50;39.27
1652;BME280;823;49.028;8.454;2022-08-25T08:13:14;100360.28;;;28.64;39.65
1652;BME280;823;49.028;8.454;2022-08-25T08:18:14;100364.00;;;28.94;38.73
1652;BME280;823;49.028;8.454;2022-08-25T08:23:17;100361.97;;;29.04;37.93
1652;BME280;823;49.028;8.454;2022-08-25T08:28:17;100363.56;;;29.22;38.62
1652;BME280;823;49.028;8.454;2022-08-25T08:33:18;100358.19;;;29.38;37.18
1652;BME280;823;49.028;8.454;2022-08-25T08:38:18;100353.22;;;29.35;37.71
1652;BME280;823;49.028;8.454;2022-08-25T08:43:19;100346.53;;;29.63;37.46
1652;BME280;823;49.028;8.454;2022-08-25T08:48:48;100349.75;;;29.89;36.90
1652;BME280;823;49.028;8.454;2022-08-25T08:53:58;100341.69;;;29.98;35.89
1652;BME280;823;49.028;8.454;2022-08-25T08:59:08;100338.69;;;30.16;35.76
1652;BME280;823;49.028;8.454;2022-08-25T09:04:19;100330.69;;;30.31;34.54
1652;BME280;823;49.028;8.454;2022-08-25T09:09:32;100333.66;;;30.36;33.66
1652;BME280;823;49.028;8.454;2022-08-25T09:14:45;100329.59;;;30.40;33.62
1652;BME280;823;49.028;8.454;2022-08-25T09:30:23;100312.47;;;30.72;32.86
1652;BME280;823;49.028;8.454;2022-08-25T09:35:27;100301.75;;;31.02;32.98
1652;BME280;823;49.028;8.454;2022-08-25T09:40:30;100307.09;;;31.02;31.97
1652;BME280;823;49.028;8.454;2022-08-25T09:45:35;100300.63;;;30.97;31.46
1652;BME280;823;49.028;8.454;2022-08-25T09:50:38;100295.81;;;31.22;31.55
1652;BME280;823;49.028;8.454;2022-08-25T09:55:40;100286.31;;;31.19;30.95
1652;BME280;823;49.028;8.454;2022-08-25T10:00:42;100277.66;;;31.32;30.91
1652;BME280;823;49.028;8.454;2022-08-25T10:05:56;100276.56;;;31.27;30.63
1652;BME280;823;49.028;8.454;2022-08-25T10:11:00;100270.81;;;31.51;29.77
1652;BME280;823;49.028;8.454;2022-08-25T10:16:07;100266.84;;;31.40;30.36
1652;BME280;823;49.028;8.454;2022-08-25T10:21:13;100268.34;;;31.50;29.76
1652;BME280;823;49.028;8.454;2022-08-25T10:26:26;100254.31;;;31.63;29.91
1652;BME280;823;49.028;8.454;2022-08-25T10:31:53;100251.28;;;31.51;29.65
1652;BME280;823;49.028;8.454;2022-08-25T10:37:22;100243.94;;;31.53;28.80
1652;BME280;823;49.028;8.454;2022-08-25T10:42:29;100240.22;;;31.75;28.72
1652;BME280;823;49.028;8.454;2022-08-25T10:47:53;100234.19;;;31.95;28.02
1652;BME280;823;49.028;8.454;2022-08-25T10:58:34;100220.00;;;32.23;28.74
1652;BME280;823;49.028;8.454;2022-08-25T11:03:46;100220.84;;;32.30;28.69
1652;BME280;823;49.028;8.454;2022-08-25T11:08:52;100202.56;;;32.34;27.94
1652;BME280;823;49.028;8.454;2022-08-25T11:24:25;100196.97;;;32.70;27.50
1652;BME280;823;49.028;8.454;2022-08-25T11:29:30;100197.69;;;32.51;27.16
1652;BME280;823;49.028;8.454;2022-08-25T11:34:34;100187.41;;;32.54;27.03
1652;BME280;823;49.028;8.454;2022-08-25T11:51:59;100175.22;;;33.14;25.94
1652;BME280;823;49.028;8.454;2022-08-25T11:57:16;100159.13;;;33.20;26.23
1652;BME280;823;49.028;8.454;2022-08-25T12:02:42;100151.09;;;33.67;26.26
1652;BME280;823;49.028;8.454;2022-08-25T12:13:00;100145.94;;;33.72;25.19
1652;BME280;823;49.028;8.454;2022-08-25T12:18:36;100141.88;;;33.50;25.34
1652;BME280;823;49.028;8.454;2022-08-25T12:45:42;100123.69;;;33.72;25.40
1652;BME280;823;49.028;8.454;2022-08-25T12:50:45;100123.88;;;33.77;25.98
1652;BME280;823;49.028;8.454;2022-08-25T13:06:52;100110.28;;;34.37;24.41
1652;BME280;823;49.028;8.454;2022-08-25T13:12:08;100104.03;;;34.43;24.30
1652;BME280;823;49.028;8.454;2022-08-25T13:17:27;100084.44;;;34.43;24.65
1652;BME280;823;49.028;8.454;2022-08-25T13:22:27;100099.81;;;34.16;23.72
1652;BME280;823;49.028;8.454;2022-08-25T13:27:28;100087.63;;;34.20;24.15
1652;BME280;823;49.028;8.454;2022-08-25T13:32:34;100084.81;;;34.01;24.55
1652;BME280;823;49.028;8.454;2022-08-25T13:37:35;100080.66;;;34.12;24.66
1652;BME280;823;49.028;8.454;2022-08-25T13:42:37;100064.91;;;34.22;24.18
1652;BME280;823;49.028;8.454;2022-08-25T13:47:39;100064.34;;;34.14;24.71
1652;BME280;823;49.028;8.454;2022-08-25T13:52:40;100056.66;;;34.17;24.98
1652;BME280;823;49.028;8.454;2022-08-25T13:57:43;100052.91;;;34.32;24.55
1652;BME280;823;49.028;8.454;2022-08-25T14:02:45;100045.28;;;34.60;24.01
1652;BME280;823;49.028;8.454;2022-08-25T14:07:55;100038.53;;;34.76;23.17
1652;BME280;823;49.028;8.454;2022-08-25T14:18:21;100027.13;;;34.88;23.38
1652;BME280;823;49.028;8.454;2022-08-25T14:23:27;100029.03;;;34.81;22.76
1652;BME280;823;49.028;8.454;2022-08-25T14:28:29;100022.66;;;35.00;22.63
1652;BME280;823;49.028;8.454;2022-08-25T14:33:34;100023.56;;;34.94;23.04
1652;BME280;823;49.028;8.454;2022-08-25T14:38:36;100019.28;;;34.86;22.36
1652;BME280;823;49.028;8.454;2022-08-25T14:43:38;100016.59;;;34.86;22.81
1652;BME280;823;49.028;8.454;2022-08-25T14:48:41;100011.06;;;34.81;22.52
1652;BME280;823;49.028;8.454;2022-08-25T14:53:43;100015.59;;;34.81;22.34
1652;BME280;823;49.028;8.454;2022-08-25T14:58:43;100012.91;;;34.81;22.67
1652;BME280;823;49.028;8.454;2022-08-25T15:03:46;100002.94;;;34.88;22.24
1652;BME280;823;49.028;8.454;2022-08-25T15:08:47;99994.00;;;34.69;22.26
1652;BME280;823;49.028;8.454;2022-08-25T15:14:06;99986.16;;;34.67;22.58
1652;BME280;823;49.028;8.454;2022-08-25T15:19:11;99980.41;;;34.64;22.65
1652;BME280;823;49.028;8.454;2022-08-25T15:24:14;99979.69;;;34.75;22.47
1652;BME280;823;49.028;8.454;2022-08-25T15:29:15;99970.06;;;34.67;21.96
1652;BME280;823;49.028;8.454;2022-08-25T15:34:16;99974.00;;;34.65;22.54
1652;BME280;823;49.028;8.454;2022-08-25T15:39:17;99965.31;;;34.62;22.46
1652;BME280;823;49.028;8.454;2022-08-25T15:44:18;99960.63;;;34.58;22.12
1652;BME280;823;49.028;8.454;2022-08-25T15:49:19;99958.97;;;34.57;22.67
1652;BME280;823;49.028;8.454;2022-08-25T15:54:21;99953.19;;;34.53;21.54
1652;BME280;823;49.028;8.454;2022-08-25T15:59:22;99957.41;;;34.49;22.22
1652;BME280;823;49.028;8.454;2022-08-25T16:04:24;99950.50;;;34.53;22.34
1652;BME280;823;49.028;8.454;2022-08-25T16:09:25;99955.56;;;34.68;22.19
1652;BME280;823;49.028;8.454;2022-08-25T16:14:26;99950.69;;;34.58;22.03
1652;BME280;823;49.028;8.454;2022-08-25T16:19:27;99959.47;;;34.47;22.54
1652;BME280;823;49.028;8.454;2022-08-25T16:24:28;99955.88;;;34.53;22.54
1652;BME280;823;49.028;8.454;2022-08-25T16:29:28;99958.69;;;34.40;23.30
1652;BME280;823;49.028;8.454;2022-08-25T16:34:30;99952.56;;;34.26;22.18
1652;BME280;823;49.028;8.454;2022-08-25T16:39:31;99954.22;;;34.27;22.67
1652;BME280;823;49.028;8.454;2022-08-25T16:44:31;99942.44;;;34.28;22.18
1652;BME280;823;49.028;8.454;2022-08-25T16:49:33;99947.59;;;34.30;22.02
1652;BME280;823;49.028;8.454;2022-08-25T16:54:33;99938.97;;;34.21;22.09
1652;BME280;823;49.028;8.454;2022-08-25T16:59:52;99938.97;;;34.21;22.70
1652;BME280;823;49.028;8.454;2022-08-25T17:04:52;99941.69;;;34.14;23.33
1652;BME280;823;49.028;8.454;2022-08-25T17:09:53;99941.97;;;34.06;24.27
1652;BME280;823;49.028;8.454;2022-08-25T17:14:57;99928.59;;;33.99;23.44
1652;BME280;823;49.028;8.454;2022-08-25T17:19:57;99935.59;;;34.00;23.24
1652;BME280;823;49.028;8.454;2022-08-25T17:24:57;99943.53;;;33.88;24.39
1652;BME280;823;49.028;8.454;2022-08-25T17:29:57;99937.31;;;33.88;24.58
1652;BME280;823;49.028;8.454;2022-08-25T17:34:58;99944.38;;;33.75;24.62
1652;BME280;823;49.028;8.454;2022-08-25T17:39:58;99941.72;;;33.69;24.79
1652;BME280;823;49.028;8.454;2022-08-25T17:44:58;99943.84;;;33.60;24.72
1652;BME280;823;49.028;8.454;2022-08-25T17:49:59;99937.06;;;33.51;24.99
1652;BME280;823;49.028;8.454;2022-08-25T17:54:59;99940.59;;;33.44;24.92
1652;BME280;823;49.028;8.454;2022-08-25T17:59:59;99943.75;;;33.35;24.86
1652;BME280;823;49.028;8.454;2022-08-25T18:05:04;99942.94;;;33.21;25.18
1652;BME280;823;49.028;8.454;2022-08-25T18:10:07;99946.84;;;33.12;25.65
1652;BME280;823;49.028;8.454;2022-08-25T18:15:09;99953.88;;;32.99;26.07
1652;BME280;823;49.028;8.454;2022-08-25T18:20:10;99952.50;;;32.83;25.26
1652;BME280;823;49.028;8.454;2022-08-25T18:25:13;99956.63;;;32.72;26.44
1652;BME280;823;49.028;8.454;2022-08-25T18:30:13;99963.59;;;32.60;26.21
1652;BME280;823;49.028;8.454;2022-08-25T18:35:14;99971.81;;;32.45;26.54
1652;BME280;823;49.028;8.454;2022-08-25T18:40:14;99975.72;;;32.29;27.81
1652;BME280;823;49.028;8.454;2022-08-25T18:45:27;99969.53;;;32.15;28.06
1652;BME280;823;49.028;8.454;2022-08-25T18:50:32;99976.84;;;32.00;29.31
1652;BME280;823;49.028;8.454;2022-08-25T18:55:33;99977.22;;;31.83;29.58
1652;BME280;823;49.028;8.454;2022-08-25T19:00:36;99984.97;;;31.71;29.62
1652;BME280;823;49.028;8.454;2022-08-25T19:05:38;99979.31;;;31.53;29.95
1652;BME280;823;49.028;8.454;2022-08-25T19:10:43;99982.13;;;31.38;29.92
1652;BME280;823;49.028;8.454;2022-08-25T19:15:44;99989.81;;;31.19;32.72
1652;BME280;823;49.028;8.454;2022-08-25T19:20:45;99986.34;;;30.97;32.50
1652;BME280;823;49.028;8.454;2022-08-25T19:25:45;99998.75;;;30.77;32.48
1652;BME280;823;49.028;8.454;2022-08-25T19:30:46;99992.75;;;30.53;31.91
1652;BME280;823;49.028;8.454;2022-08-25T19:35:48;99989.06;;;30.32;34.63
1652;BME280;823;49.028;8.454;2022-08-25T19:40:50;99986.63;;;30.16;33.70
1652;BME280;823;49.028;8.454;2022-08-25T19:45:50;99996.16;;;30.03;34.97
1652;BME280;823;49.028;8.454;2022-08-25T19:50:51;99996.16;;;29.88;33.07
1652;BME280;823;49.028;8.454;2022-08-25T19:55:51;100001.50;;;29.73;34.04
1652;BME280;823;49.028;8.454;2022-08-25T20:00:53;99998.38;;;29.55;36.00
1652;BME280;823;49.028;8.454;2022-08-25T20:05:53;100004.63;;;29.47;34.86
1652;BME280;823;49.028;8.454;2022-08-25T20:10:55;100009.41;;;29.37;35.37
1652;BME280;823;49.028;8.454;2022-08-25T20:15:56;100009.03;;;29.25;35.69
1652;BME280;823;49.028;8.454;2022-08-25T20:20:56;100012.94;;;29.14;35.68
1652;BME280;823;49.028;8.454;2022-08-25T20:25:56;100019.50;;;29.03;35.93
1652;BME280;823;49.028;8.454;2022-08-25T20:30:57;100021.50;;;28.86;37.17
1652;BME280;823;49.028;8.454;2022-08-25T20:35:57;100021.19;;;28.81;36.81
1652;BME280;823;49.028;8.454;2022-08-25T20:40:58;100015.50;;;28.69;36.72
1652;BME280;823;49.028;8.454;2022-08-25T20:46:01;100020.72;;;28.54;37.55
1652;BME280;823;49.028;8.454;2022-08-25T20:51:06;100011.50;;;28.42;38.27
1652;BME280;823;49.028;8.454;2022-08-25T20:56:09;100016.84;;;28.34;37.25
1652;BME280;823;49.028;8.454;2022-08-25T21:01:15;100019.56;;;28.26;38.23
1652;BME280;823;49.028;8.454;2022-08-25T21:06:16;100022.31;;;28.09;38.39
1652;BME280;823;49.028;8.454;2022-08-25T21:11:16;100028.84;;;27.98;38.37
1652;BME280;823;49.028;8.454;2022-08-25T21:16:17;100019.06;;;27.91;39.00
1652;BME280;823;49.028;8.454;2022-08-25T21:21:18;100023.91;;;27.79;39.89
1652;BME280;823;49.028;8.454;2022-08-25T21:26:28;100028.63;;;27.68;39.96
1652;BME280;823;49.028;8.454;2022-08-25T21:31:30;100027.28;;;27.64;39.19
1652;BME280;823;49.028;8.454;2022-08-25T21:36:31;100040.59;;;27.56;38.66
1652;BME280;823;49.028;8.454;2022-08-25T21:41:33;100044.09;;;27.48;39.34
1652;BME280;823;49.028;8.454;2022-08-25T21:46:34;100046.44;;;27.35;39.10
1652;BME280;823;49.028;8.454;2022-08-25T21:51:42;100044.59;;;27.27;39.75
1652;BME280;823;49.028;8.454;2022-08-25T21:56:48;100040.00;;;27.13;39.90
1652;BME280;823;49.028;8.454;2022-08-25T22:01:53;100043.97;;;27.00;40.29
1652;BME280;823;49.028;8.454;2022-08-25T22:06:54;100038.50;;;26.94;40.57
1652;BME280;823;49.028;8.454;2022-08-25T22:11:55;100039.31;;;26.94;39.91
1652;BME280;823;49.028;8.454;2022-08-25T22:16:56;100037.50;;;26.87;40.20
1652;BME280;823;49.028;8.454;2022-08-25T22:21:56;100038.50;;;26.77;41.05
1652;BME280;823;49.028;8.454;2022-08-25T22:26:57;100045.94;;;26.65;41.02
1652;BME280;823;49.028;8.454;2022-08-25T22:31:57;100041.28;;;26.67;40.92
1652;BME280;823;49.028;8.454;2022-08-25T22:36:59;100031.00;;;26.64;40.60
1652;BME280;823;49.028;8.454;2022-08-25T22:42:00;100030.63;;;26.51;41.70
1652;BME280;823;49.028;8.454;2022-08-25T22:47:00;100032.94;;;26.54;41.32
1652;BME280;823;49.028;8.454;2022-08-25T22:52:01;100025.84;;;26.46;41.56
1652;BME280;823;49.028;8.454;2022-08-25T22:57:01;100027.97;;;26.43;41.23
1652;BME280;823;49.028;8.454;2022-08-25T23:02:02;100034.59;;;26.39;41.46
1652;BME280;823;49.028;8.454;2022-08-25T23:07:03;100024.13;;;26.29;41.61
1652;BME280;823;49.028;8.454;2022-08-25T23:12:04;100023.66;;;26.25;41.30
1652;BME280;823;49.028;8.454;2022-08-25T23:17:05;100022.31;;;26.21;42.24
1652;BME280;823;49.028;8.454;2022-08-25T23:22:05;100023.25;;;26.12;42.06
1652;BME280;823;49.028;8.454;2022-08-25T23:27:11;100013.28;;;26.06;42.60
1652;BME280;823;49.028;8.454;2022-08-25T23:32:12;100019.66;;;25.87;43.28
1652;BME280;823;49.028;8.454;2022-08-25T23:37:14;100018.13;;;25.76;43.45
1652;BME280;823;49.028;8.454;2022-08-25T23:42:14;100009.00;;;25.70;43.61
1652;BME280;823;49.028;8.454;2022-08-25T23:47:15;100007.16;;;25.71;43.64
1652;BME280;823;49.028;8.454;2022-08-25T23:52:15;100001.84;;;25.62;43.77
1652;BME280;823;49.028;8.454;2022-08-25T23:57:16;100001.84;;;25.62;43.41
